Time;durP1;ratioP1;P1;durP2;ratioP2;P2;SDS_P1;SDS_P2;PMS_P1;PMS_P2;Temp;Humidity;BMP_temperature;BMP_pressure;BME280_temperature;BME280_humidity;BME280_pressure;Samples;Min_cycle;Max_cycle;Signal;HPM_P1;HPM_P2
2022/03/13 00:02:22;;;;;;;32.90;19.45;;;8.00;99.90;;;;;;4861925;29;20044;-69
2022/03/13 00:04:52;;;;;;;34.47;19.48;;;;;;;;;;4861500;29;20124;-69
2022/03/13 00:07:23;;;;;;;34.85;20.10;;;;;;;;;;4859683;29;20042;-68
2022/03/13 00:09:50;;;;;;;36.20;19.60;;;8.90;98.90;;;;;;4861360;29;20045;-69
2022/03/13 00:12:26;;;;;;;33.03;19.40;;;7.70;99.90;;;;;;4859689;29;20046;-69
2022/03/13 00:14:55;;;;;;;35.85;20.20;;;;;;;;;;4861503;29;20097;-68
2022/03/13 00:17:27;;;;;;;34.78;19.13;;;;;;;;;;4859340;29;20057;-68
2022/03/13 00:19:54;;;;;;;33.25;19.73;;;;;;;;;;4861022;29;20055;-68
2022/03/13 00:22:20;;;;;;;39.08;19.85;;;;;;;;;;4861711;29;20088;-69
2022/03/13 00:24:46;;;;;;;34.00;19.67;;;;;;;;;;4861425;29;20116;-68
2022/03/13 00:27:13;;;;;;;31.35;19.08;;;;;;;;;;4862487;29;20052;-69
2022/03/13 00:29:40;;;;;;;34.58;19.70;;;;;;;;;;4864515;29;20144;-69
2022/03/13 00:32:07;;;;;;;36.42;20.08;;;;;;;;;;4878475;29;20049;-68
2022/03/13 00:34:33;;;;;;;34.97;20.38;;;;;;;;;;4857616;29;20395;-69
2022/03/13 00:36:59;;;;;;;35.47;19.33;;;8.30;99.40;;;;;;4862872;29;20041;-70
2022/03/13 00:39:26;;;;;;;39.58;20.48;;;;;;;;;;4863995;29;20037;-68
2022/03/13 00:41:52;;;;;;;38.35;20.20;;;;;;;;;;4849122;29;20124;-70
2022/03/13 00:44:19;;;;;;;35.63;19.83;;;;;;;;;;4864585;29;20045;-69
2022/03/13 00:46:45;;;;;;;39.40;20.75;;;;;;;;;;4864676;29;20071;-68
2022/03/13 00:49:11;;;;;;;35.10;20.20;;;;;;;;;;4860902;29;20044;-69
2022/03/13 00:51:37;;;;;;;33.25;20.10;;;;;;;;;;4844973;29;20045;-69
2022/03/13 00:54:04;;;;;;;37.80;19.70;;;;;;;;;;4862334;29;20053;-69
2022/03/13 00:56:31;;;;;;;38.47;19.67;;;;;;;;;;4863952;29;20128;-69
2022/03/13 00:58:58;;;;;;;35.72;19.58;;;;;;;;;;4863962;29;20049;-68
2022/03/13 01:01:24;;;;;;;35.75;20.13;;;;;;;;;;4848598;29;20080;-68
2022/03/13 01:03:53;;;;;;;37.28;19.88;;;8.20;99.20;;;;;;4864236;29;20068;-68
2022/03/13 01:06:21;;;;;;;36.53;19.60;;;8.30;99.60;;;;;;4863750;29;20040;-68
2022/03/13 01:08:47;;;;;;;33.97;20.30;;;;;;;;;;4863636;29;20132;-68
2022/03/13 01:11:15;;;;;;;33.08;18.50;;;;;;;;;;4856950;29;20501;-69
2022/03/13 01:13:41;;;;;;;35.67;19.70;;;;;;;;;;4847162;29;20045;-68
2022/03/13 01:16:25;;;;;;;37.28;19.42;;;8.40;99.90;;;;;;4854764;29;20045;-68
2022/03/13 01:18:57;;;;;;;35.33;20.00;;;8.40;99.90;;;;;;4863529;29;20084;-69
2022/03/13 01:21:24;;;;;;;32.85;19.67;;;8.30;99.90;;;;;;4851527;29;20045;-68
2022/03/13 01:24:11;;;;;;;36.42;19.55;;;;;;;;;;4848218;29;20127;-69
2022/03/13 01:26:38;;;;;;;34.85;19.70;;;;;;;;;;4852840;29;20522;-68
2022/03/13 01:29:12;;;;;;;32.95;19.60;;;8.30;99.30;;;;;;4858640;29;20583;-68
2022/03/13 01:31:40;;;;;;;33.65;20.15;;;8.20;99.90;;;;;;4860774;29;20120;-68
2022/03/13 01:34:11;;;;;;;32.67;19.40;;;8.30;99.90;;;;;;4861135;29;20050;-69
2022/03/13 01:36:37;;;;;;;35.05;19.77;;;;;;;;;;4862827;29;20052;-68
2022/03/13 01:39:06;;;;;;;34.15;20.10;;;8.10;99.90;;;;;;4860070;29;20509;-69
2022/03/13 01:41:35;;;;;;;37.92;20.58;;;;;;;;;;4838558;29;20052;-68
2022/03/13 01:44:02;;;;;;;32.83;19.40;;;8.30;99.90;;;;;;4863359;29;20049;-68
2022/03/13 01:46:28;;;;;;;38.75;20.33;;;;;;;;;;4863661;29;20044;-69
2022/03/13 01:48:59;;;;;;;32.80;19.00;;;8.40;99.90;;;;;;4863411;29;20557;-69
2022/03/13 01:51:25;;;;;;;35.10;19.65;;;;;;;;;;4862620;29;20120;-68
2022/03/13 01:53:56;;;;;;;33.67;19.88;;;8.30;99.90;;;;;;4879839;29;20053;-68
2022/03/13 01:56:23;;;;;;;33.45;19.30;;;;;;;;;;4861709;29;20041;-69
2022/03/13 01:58:54;;;;;;;35.13;20.38;;;8.30;99.90;;;;;;4858421;29;20348;-69
2022/03/13 02:01:22;;;;;;;36.20;19.63;;;8.50;99.90;;;;;;4878502;29;20045;-69
2022/03/13 02:03:48;;;;;;;37.95;19.75;;;8.30;99.80;;;;;;4863124;29;20512;-69
2022/03/13 02:06:14;;;;;;;37.35;21.85;;;;;;;;;;4862505;29;20044;-69
2022/03/13 02:08:40;;;;;;;34.97;20.83;;;;;;;;;;4862807;29;20049;-69
2022/03/13 02:11:07;;;;;;;36.35;19.88;;;;;;;;;;4862903;29;20081;-68
2022/03/13 02:13:34;;;;;;;38.63;20.73;;;;;;;;;;4863225;29;20041;-68
2022/03/13 02:16:04;;;;;;;33.80;20.20;;;8.40;99.90;;;;;;4859695;29;20053;-68
2022/03/13 02:18:30;;;;;;;34.80;20.00;;;;;;;;;;4860690;29;20037;-68
2022/03/13 02:20:56;;;;;;;31.15;18.45;;;;;;;;;;4856460;29;20037;-68
2022/03/13 02:23:24;;;;;;;35.95;19.50;;;8.40;99.90;;;;;;4862160;29;20040;-68
2022/03/13 02:25:52;;;;;;;34.45;19.83;;;8.10;99.90;;;;;;4862546;29;20036;-68
2022/03/13 02:28:21;;;;;;;35.50;19.77;;;8.50;99.90;;;;;;4862223;29;20040;-68
2022/03/13 02:30:47;;;;;;;37.70;19.73;;;;;;;;;;4861807;29;20056;-68
2022/03/13 02:33:18;;;;;;;35.63;19.55;;;8.30;99.90;;;;;;4858988;29;20041;-69
2022/03/13 02:35:51;;;;;;;32.25;19.85;;;8.50;99.90;;;;;;4871706;29;20045;-68
2022/03/13 02:38:17;;;;;;;39.65;21.15;;;8.90;99.90;;;;;;4862222;29;20512;-69
2022/03/13 02:40:45;;;;;;;38.30;21.08;;;;;;;;;;4862687;29;20488;-68
2022/03/13 02:43:12;;;;;;;32.13;19.55;;;;;;;;;;4862350;29;20048;-68
2022/03/13 02:45:38;;;;;;;35.28;19.70;;;;;;;;;;4858598;29;20046;-68
2022/03/13 02:48:07;;;;;;;36.28;19.42;;;8.20;99.90;;;;;;4846907;29;20056;-69
2022/03/13 02:50:33;;;;;;;36.15;19.92;;;8.30;99.90;;;;;;4860673;29;20053;-68
2022/03/13 02:52:59;;;;;;;38.08;20.20;;;;;;;;;;4860865;29;20407;-68
2022/03/13 02:55:25;;;;;;;36.60;20.02;;;;;;;;;;4861963;29;20080;-68
2022/03/13 02:57:52;;;;;;;38.78;19.52;;;8.20;99.90;;;;;;4862696;29;20112;-68
2022/03/13 03:00:20;;;;;;;35.65;19.95;;;8.40;99.90;;;;;;4862302;29;20036;-68
2022/03/13 03:02:47;;;;;;;36.08;20.00;;;;;;;;;;4860594;29;20379;-68
2022/03/13 03:05:15;;;;;;;35.03;21.45;;;;;;;;;;4862161;29;20079;-69
2022/03/13 03:07:41;;;;;;;34.25;18.88;;;;;;;;;;4862091;29;20041;-68
2022/03/13 03:10:15;;;;;;;31.77;19.77;;;8.10;99.90;;;;;;4859995;29;20049;-69
2022/03/13 03:12:41;;;;;;;35.60;19.65;;;;;;;;;;4860866;29;20044;-69
2022/03/13 03:15:07;;;;;;;33.58;19.98;;;;;;;;;;4857904;29;20055;-69
2022/03/13 03:17:33;;;;;;;34.15;19.85;;;;;;;;;;4845621;29;20037;-69
2022/03/13 03:19:59;;;;;;;35.67;18.80;;;;;;;;;;4845423;29;20494;-68
2022/03/13 03:22:26;;;;;;;34.72;20.17;;;;;;;;;;4854884;29;20033;-69
2022/03/13 03:24:52;;;;;;;33.63;19.63;;;;;;;;;;4861951;29;20101;-69
2022/03/13 03:27:18;;;;;;;34.20;20.05;;;;;;;;;;4846349;29;20033;-69
2022/03/13 03:29:44;;;;;;;36.00;19.63;;;;;;;;;;4861979;29;20321;-69
2022/03/13 03:32:10;;;;;;;34.15;20.02;;;;;;;;;;4853814;29;20048;-69
2022/03/13 03:34:36;;;;;;;35.72;19.60;;;9.00;99.90;;;;;;4861838;29;20487;-69
2022/03/13 03:37:02;;;;;;;34.88;18.80;;;8.90;99.90;;;;;;4861826;29;20087;-69
2022/03/13 03:39:29;;;;;;;34.58;20.00;;;;;;;;;;4846543;29;20470;-69
2022/03/13 03:41:56;;;;;;;35.25;19.27;;;;;;;;;;4859426;29;20427;-69
2022/03/13 03:44:23;;;;;;;33.70;19.23;;;8.30;99.90;;;;;;4858071;29;20045;-69
2022/03/13 03:46:50;;;;;;;38.15;19.27;;;8.40;99.90;;;;;;4860866;29;20120;-69
2022/03/13 03:49:17;;;;;;;39.00;20.52;;;;;;;;;;4860478;29;20188;-69
2022/03/13 03:51:44;;;;;;;33.95;20.08;;;8.20;99.90;;;;;;4861508;29;20051;-68
2022/03/13 03:54:10;;;;;;;31.92;18.85;;;8.30;99.90;;;;;;4861722;29;20073;-68
2022/03/13 03:56:36;;;;;;;32.65;17.55;;;;;;;;;;4861625;29;20041;-69
2022/03/13 03:59:03;;;;;;;33.60;19.08;;;;;;;;;;4861575;29;20044;-69
2022/03/13 04:01:36;;;;;;;32.45;19.15;;;8.10;99.90;;;;;;4861273;29;20120;-69
2022/03/13 04:04:04;;;;;;;31.80;18.00;;;8.10;99.90;;;;;;4864924;29;20037;-69
2022/03/13 04:06:30;;;;;;;31.75;18.00;;;;;;;;;;4862857;29;20446;-69
2022/03/13 04:08:56;;;;;;;34.78;17.80;;;;;;;;;;4848707;29;20150;-69
2022/03/13 04:11:22;;;;;;;29.48;18.15;;;;;;;;;;4846757;29;20088;-69
2022/03/13 04:13:48;;;;;;;31.92;18.10;;;;;;;;;;4865130;29;20112;-69
2022/03/13 04:16:14;;;;;;;31.90;17.23;;;;;;;;;;4863881;29;20055;-69
2022/03/13 04:18:40;;;;;;;32.45;18.33;;;;;;;;;;4864851;29;20116;-69
2022/03/13 04:21:07;;;;;;;30.75;17.77;;;;;;;;;;4864934;29;20505;-69
2022/03/13 04:23:34;;;;;;;30.52;17.70;;;8.30;99.90;;;;;;4854741;29;20490;-69
2022/03/13 04:26:00;;;;;;;34.08;17.65;;;;;;;;;;4864966;29;20037;-69
2022/03/13 04:28:27;;;;;;;32.85;19.30;;;;;;;;;;4855362;29;20086;-69
2022/03/13 04:30:57;;;;;;;30.02;18.95;;;;;;;;;;4864815;29;20068;-68
2022/03/13 04:33:23;;;;;;;34.83;18.13;;;;;;;;;;4842414;29;20114;-69
2022/03/13 04:35:49;;;;;;;34.10;18.83;;;;;;;;;;4860124;29;20505;-69
2022/03/13 04:38:16;;;;;;;30.17;17.95;;;;;;;;;;4864627;29;20041;-69
2022/03/13 04:40:42;;;;;;;31.92;18.17;;;;;;;;;;4864593;29;20523;-69
2022/03/13 04:43:08;;;;;;;30.88;18.15;;;;;;;;;;4864263;29;20087;-69
2022/03/13 04:45:35;;;;;;;30.52;18.90;;;;;;;;;;4864536;29;20068;-68
2022/03/13 04:48:01;;;;;;;31.45;18.05;;;;;;;;;;4845949;29;20081;-69
2022/03/13 04:50:27;;;;;;;31.67;17.63;;;;;;;;;;4858283;29;20076;-69
2022/03/13 04:52:52;;;;;;;33.10;18.05;;;9.00;99.90;;;;;;4863348;29;20064;-69
2022/03/13 04:55:18;;;;;;;32.38;17.48;;;;;;;;;;4877207;29;20045;-69
2022/03/13 04:57:45;;;;;;;33.40;17.48;;;;;;;;;;4861875;29;20060;-69
2022/03/13 05:00:11;;;;;;;30.35;17.80;;;;;;;;;;4858006;29;20041;-69
2022/03/13 05:02:37;;;;;;;30.42;17.85;;;;;;;;;;4863037;29;20042;-69
2022/03/13 05:05:04;;;;;;;27.77;16.80;;;7.20;99.90;;;;;;4864431;29;20051;-69
2022/03/13 05:07:30;;;;;;;29.30;17.17;;;;;;;;;;4861888;29;20098;-69
2022/03/13 05:09:56;;;;;;;30.73;18.15;;;;;;;;;;4847248;29;20050;-69
2022/03/13 05:12:25;;;;;;;29.63;18.13;;;;;;;;;;4861463;29;20121;-69
2022/03/13 05:14:51;;;;;;;32.83;18.63;;;;;;;;;;4860747;29;20072;-69
2022/03/13 05:17:17;;;;;;;30.50;18.17;;;;;;;;;;4861507;29;20072;-69
2022/03/13 05:19:44;;;;;;;29.70;17.60;;;;;;;;;;4864163;29;20132;-69
2022/03/13 05:22:11;;;;;;;35.97;20.40;;;;;;;;;;4863937;29;20040;-69
2022/03/13 05:24:37;;;;;;;35.33;18.08;;;;;;;;;;4852216;29;20491;-69
2022/03/13 05:27:03;;;;;;;33.78;19.08;;;8.70;99.90;;;;;;4863916;29;20450;-69
2022/03/13 05:29:29;;;;;;;31.33;18.33;;;;;;;;;;4863371;29;20045;-69
2022/03/13 05:31:55;;;;;;;32.35;18.95;;;;;;;;;;4863348;29;20428;-69
2022/03/13 05:34:21;;;;;;;35.22;19.00;;;;;;;;;;4854214;29;20069;-69
2022/03/13 05:36:47;;;;;;;32.33;18.80;;;;;;;;;;4863658;29;20048;-69
2022/03/13 05:39:13;;;;;;;33.47;18.65;;;;;;;;;;4863262;29;20121;-69
2022/03/13 05:41:40;;;;;;;34.95;18.85;;;;;;;;;;4862270;29;20041;-69
2022/03/13 05:44:12;;;;;;;32.08;19.70;;;8.10;99.90;;;;;;4840554;29;20049;-69
2022/03/13 05:46:38;;;;;;;33.53;19.17;;;;;;;;;;4860303;29;20041;-69
2022/03/13 05:49:04;;;;;;;36.70;19.92;;;;;;;;;;4859767;29;20053;-69
2022/03/13 05:51:36;;;;;;;32.67;19.30;;;;;;;;;;4863149;29;20089;-69
2022/03/13 05:54:03;;;;;;;35.47;19.37;;;8.50;99.90;;;;;;4843843;29;20053;-69
2022/03/13 05:56:29;;;;;;;33.38;19.38;;;;;;;;;;4842241;29;20065;-69
2022/03/13 05:58:55;;;;;;;32.05;18.88;;;;;;;;;;4814492;29;20141;-68
2022/03/13 06:01:21;;;;;;;36.30;20.30;;;;;;;;;;4828746;29;20060;-69
2022/03/13 06:03:47;;;;;;;38.45;20.70;;;;;;;;;;4844835;29;20403;-69
2022/03/13 06:06:14;;;;;;;31.50;19.15;;;;;;;;;;4844583;29;20116;-69
2022/03/13 06:08:41;;;;;;;34.65;20.15;;;8.00;99.90;;;;;;4844751;29;20105;-69
2022/03/13 06:11:08;;;;;;;32.47;20.00;;;;;;;;;;4827532;29;20046;-68
2022/03/13 06:13:34;;;;;;;33.55;19.27;;;;;;;;;;4842805;29;20066;-69
2022/03/13 06:16:00;;;;;;;35.13;19.75;;;;;;;;;;4835392;29;20089;-69
2022/03/13 06:18:30;;;;;;;35.85;19.73;;;;;;;;;;4841117;29;20116;-69
2022/03/13 06:20:57;;;;;;;36.22;19.85;;;;;;;;;;4844147;29;20479;-69
2022/03/13 06:23:23;;;;;;;35.42;19.42;;;8.50;99.90;;;;;;4844280;29;20559;-69
2022/03/13 06:25:50;;;;;;;38.85;19.98;;;;;;;;;;4843485;29;20409;-69
2022/03/13 06:28:16;;;;;;;35.83;20.52;;;;;;;;;;4844143;29;20094;-75
2022/03/13 06:30:43;;;;;;;33.13;19.92;;;;;;;;;;4843917;29;20112;-68
2022/03/13 06:33:09;;;;;;;35.72;19.48;;;;;;;;;;4843049;29;20678;-69
2022/03/13 06:35:35;;;;;;;34.13;20.05;;;;;;;;;;4843603;29;20048;-69
2022/03/13 06:38:01;;;;;;;32.35;18.60;;;;;;;;;;4844132;29;20048;-68
2022/03/13 06:40:27;;;;;;;36.25;20.52;;;;;;;;;;4828909;29;20041;-69
2022/03/13 06:42:55;;;;;;;36.38;19.70;;;7.90;99.90;;;;;;4843338;29;20185;-69
2022/03/13 06:45:21;;;;;;;34.75;20.17;;;;;;;;;;4843049;29;20052;-68
2022/03/13 06:47:51;;;;;;;34.75;20.65;;;;;;;;;;4842631;29;20045;-68
2022/03/13 06:50:19;;;;;;;32.55;18.52;;;7.80;99.90;;;;;;4840227;29;20053;-69
2022/03/13 06:52:47;;;;;;;33.60;18.50;;;8.90;99.90;;;;;;4841295;29;20057;-69
2022/03/13 06:55:14;;;;;;;32.10;19.48;;;8.30;99.90;;;;;;4841930;29;20053;-68
2022/03/13 06:57:41;;;;;;;34.20;19.52;;;8.10;99.90;;;;;;4843960;29;20099;-69
2022/03/13 07:00:07;;;;;;;37.25;19.80;;;8.20;99.90;;;;;;4831578;29;20505;-69
2022/03/13 07:02:33;;;;;;;38.25;18.33;;;;;;;;;;4850387;29;20052;-68
2022/03/13 07:04:59;;;;;;;33.17;19.17;;;;;;;;;;4843590;29;20113;-68
2022/03/13 07:07:26;;;;;;;34.17;19.00;;;;;;;;;;4843658;29;20037;-68
2022/03/13 07:09:52;;;;;;;31.35;19.25;;;;;;;;;;4843587;29;20182;-68
2022/03/13 07:12:19;;;;;;;30.70;18.50;;;;;;;;;;4843716;29;20037;-70
2022/03/13 07:14:47;;;;;;;29.23;17.60;;;;;;;;;;4843526;29;20041;-70
2022/03/13 07:17:14;;;;;;;30.13;17.52;;;8.20;99.90;;;;;;4828208;29;20042;-69
2022/03/13 07:19:43;;;;;;;29.85;19.10;;;;;;;;;;4843712;29;20072;-69
2022/03/13 07:22:10;;;;;;;30.40;18.08;;;;;;;;;;4843660;29;20052;-69
2022/03/13 07:24:36;;;;;;;32.78;17.85;;;;;;;;;;4843437;29;20048;-69
2022/03/13 07:27:02;;;;;;;32.05;17.77;;;9.10;99.90;;;;;;4843020;29;20056;-69
2022/03/13 07:29:28;;;;;;;29.77;18.10;;;;;;;;;;4843328;29;20045;-68
2022/03/13 07:31:56;;;;;;;35.00;18.92;;;;;;;;;;4842927;29;20041;-69
2022/03/13 07:34:23;;;;;;;30.00;17.70;;;7.80;99.90;;;;;;4843338;29;20422;-69
2022/03/13 07:36:51;;;;;;;31.08;18.50;;;;;;;;;;4827659;29;20410;-69
2022/03/13 07:39:18;;;;;;;33.13;19.38;;;;;;;;;;4845305;29;20520;-70
2022/03/13 07:41:44;;;;;;;33.95;19.05;;;;;;;;;;4863495;29;20048;-69
2022/03/13 07:44:11;;;;;;;36.80;19.90;;;;;;;;;;4846625;29;20082;-69
2022/03/13 07:46:37;;;;;;;34.60;18.95;;;;;;;;;;4831215;29;20132;-69
2022/03/13 07:49:03;;;;;;;31.33;18.95;;;;;;;;;;4846976;29;20105;-73
2022/03/13 07:51:30;;;;;;;33.08;18.95;;;;;;;;;;4845225;29;20042;-73
2022/03/13 07:53:56;;;;;;;33.10;18.23;;;;;;;;;;4830787;29;20057;-73
2022/03/13 07:56:23;;;;;;;34.10;19.10;;;;;;;;;;4846294;29;20049;-73
2022/03/13 07:58:49;;;;;;;32.28;17.90;;;;;;;;;;4832239;29;20046;-73
2022/03/13 08:01:15;;;;;;;32.90;18.85;;;;;;;;;;4844827;29;20086;-73
2022/03/13 08:03:44;;;;;;;36.60;19.05;;;;;;;;;;4846558;29;20505;-73
2022/03/13 08:06:10;;;;;;;35.03;18.40;;;;;;;;;;4828227;29;20055;-73
2022/03/13 08:08:37;;;;;;;32.15;18.10;;;;;;;;;;4846307;29;20052;-73
2022/03/13 08:11:03;;;;;;;33.95;18.42;;;;;;;;;;4829847;29;20046;-73
2022/03/13 08:13:29;;;;;;;32.17;18.42;;;;;;;;;;4846535;29;20057;-73
2022/03/13 08:15:55;;;;;;;33.35;18.73;;;9.10;99.90;;;;;;4828774;29;20495;-73
2022/03/13 08:18:21;;;;;;;33.10;18.13;;;;;;;;;;4846391;29;20121;-73
2022/03/13 08:20:47;;;;;;;32.13;17.77;;;;;;;;;;4829678;29;20038;-73
2022/03/13 08:23:14;;;;;;;38.95;17.75;;;;;;;;;;4846449;29;20097;-73
2022/03/13 08:25:40;;;;;;;29.25;16.55;;;;;;;;;;4845963;29;20048;-72
2022/03/13 08:28:06;;;;;;;31.75;17.58;;;9.00;99.90;;;;;;4831242;29;20125;-73
2022/03/13 08:30:33;;;;;;;31.50;16.88;;;8.80;99.90;;;;;;4846142;29;20041;-73
2022/03/13 08:32:59;;;;;;;28.63;17.17;;;;;;;;;;4846518;29;20049;-73
2022/03/13 08:35:25;;;;;;;28.25;16.80;;;;;;;;;;4830488;29;20044;-73
2022/03/13 08:37:52;;;;;;;30.42;17.60;;;8.50;98.80;;;;;;4846003;29;20117;-73
2022/03/13 08:40:19;;;;;;;29.65;17.00;;;;;;;;;;4846725;29;20112;-73
2022/03/13 08:42:45;;;;;;;29.05;17.08;;;;;;;;;;4845846;29;20065;-74
2022/03/13 08:45:11;;;;;;;29.05;16.55;;;8.80;98.80;;;;;;4831165;29;20046;-74
2022/03/13 08:47:41;;;;;;;33.58;17.65;;;;;;;;;;4828061;29;20097;-73
2022/03/13 08:50:08;;;;;;;31.63;17.83;;;9.20;99.90;;;;;;4832020;29;20045;-73
2022/03/13 08:52:35;;;;;;;31.08;17.23;;;;;;;;;;4845455;29;20498;-73
2022/03/13 08:55:02;;;;;;;29.20;16.65;;;;;;;;;;4840247;29;20049;-73
2022/03/13 08:57:28;;;;;;;39.50;18.05;;;;;;;;;;4845289;29;20045;-74
2022/03/13 08:59:54;;;;;;;26.35;16.83;;;;;;;;;;4845333;29;20546;-74
2022/03/13 09:02:22;;;;;;;30.40;17.23;;;;;;;;;;4844768;29;20430;-74
2022/03/13 09:04:48;;;;;;;29.52;16.80;;;9.20;97.50;;;;;;4845545;29;20048;-74
2022/03/13 09:07:15;;;;;;;27.70;16.35;;;9.90;99.90;;;;;;4829410;29;20475;-74
2022/03/13 09:09:44;;;;;;;29.45;16.83;;;;;;;;;;4845043;29;20471;-73
2022/03/13 09:12:10;;;;;;;28.48;16.00;;;;;;;;;;4827457;29;20102;-70
2022/03/13 09:14:38;;;;;;;30.02;16.77;;;;;;;;;;4844898;29;20467;-69
2022/03/13 09:17:04;;;;;;;28.65;15.70;;;;;;;;;;4844437;29;20513;-69
2022/03/13 09:19:30;;;;;;;30.63;17.05;;;;;;;;;;4844941;29;20045;-70
2022/03/13 09:21:56;;;;;;;28.73;16.20;;;;;;;;;;4837189;29;20045;-70
2022/03/13 09:24:22;;;;;;;28.02;16.23;;;;;;;;;;4844852;29;20080;-70
2022/03/13 09:26:48;;;;;;;25.80;15.50;;;;;;;;;;4828182;29;20050;-69
2022/03/13 09:29:15;;;;;;;27.63;16.48;;;;;;;;;;4844581;29;20108;-70
2022/03/13 09:31:41;;;;;;;27.17;16.05;;;10.10;99.90;;;;;;4844698;29;20077;-69
2022/03/13 09:34:07;;;;;;;30.17;16.20;;;;;;;;;;4844726;29;20080;-69
2022/03/13 09:36:36;;;;;;;32.65;16.73;;;;;;;;;;4844455;29;20038;-69
2022/03/13 09:39:07;;;;;;;27.88;16.92;;;10.30;95.80;;;;;;4842446;29;20050;-70
2022/03/13 09:41:33;;;;;;;29.17;15.32;;;;;;;;;;4859397;29;20038;-69
2022/03/13 09:43:59;;;;;;;29.30;16.83;;;;;;;;;;4845960;29;20042;-69
2022/03/13 09:46:25;;;;;;;31.08;16.52;;;;;;;;;;4844593;29;20120;-69
2022/03/13 09:48:54;;;;;;;30.15;16.63;;;10.30;99.20;;;;;;4831424;29;20161;-69
2022/03/13 09:51:20;;;;;;;28.77;16.45;;;;;;;;;;4844150;29;20048;-69
2022/03/13 09:53:47;;;;;;;35.75;17.33;;;;;;;;;;4846180;29;20057;-69
2022/03/13 09:56:13;;;;;;;35.80;16.83;;;;;;;;;;4844322;29;20049;-70
2022/03/13 09:58:40;;;;;;;30.45;17.27;;;;;;;;;;4830000;29;20497;-70
2022/03/13 10:01:07;;;;;;;33.10;16.27;;;;;;;;;;4843600;29;20125;-70
2022/03/13 10:03:34;;;;;;;29.38;17.13;;;;;;;;;;4843780;29;20041;-70
2022/03/13 10:06:00;;;;;;;32.65;16.67;;;;;;;;;;4844071;29;20411;-69
2022/03/13 10:08:31;;;;;;;29.20;16.25;;;11.30;95.30;;;;;;4826800;29;20042;-70
2022/03/13 10:10:58;;;;;;;29.05;16.60;;;10.40;98.00;;;;;;4844387;29;20546;-70
2022/03/13 10:13:46;;;;;;;34.05;17.20;;;12.00;96.10;;;;;;4843880;29;20053;-70
2022/03/13 10:16:22;;;;;;;29.08;16.52;;;11.40;94.20;;;;;;4839927;29;20081;-70
2022/03/13 10:18:48;;;;;;;30.08;16.25;;;;;;;;;;4841142;29;20499;-70
2022/03/13 10:21:19;;;;;;;27.75;16.90;;;11.50;94.60;;;;;;4844048;29;20041;-70
2022/03/13 10:23:48;;;;;;;31.10;16.83;;;12.00;98.00;;;;;;4828063;29;20130;-70
2022/03/13 10:26:17;;;;;;;28.60;16.75;;;11.30;94.60;;;;;;4844162;29;20392;-70
2022/03/13 10:28:43;;;;;;;28.15;17.25;;;;;;;;;;4843295;29;20052;-70
2022/03/13 10:31:13;;;;;;;31.60;16.73;;;11.30;94.60;;;;;;4843944;29;20057;-70
2022/03/13 10:33:44;;;;;;;32.95;17.05;;;11.50;93.60;;;;;;4828385;29;20494;-70
2022/03/13 10:36:17;;;;;;;29.98;17.40;;;;;;;;;;4841887;29;20760;-71
2022/03/13 10:38:43;;;;;;;26.20;16.63;;;;;;;;;;4812277;29;20048;-70
2022/03/13 10:41:09;;;;;;;32.92;17.42;;;12.40;97.90;;;;;;4843640;29;20391;-70
2022/03/13 10:43:37;;;;;;;31.13;17.13;;;;;;;;;;4843887;29;20078;-70
2022/03/13 10:46:04;;;;;;;30.23;17.85;;;11.80;97.70;;;;;;4843622;29;20056;-69
2022/03/13 10:48:33;;;;;;;29.60;17.65;;;12.00;94.50;;;;;;4841619;29;20085;-69
2022/03/13 10:51:07;;;;;;;33.15;17.95;;;;;;;;;;4843847;29;20041;-69
2022/03/13 10:53:38;;;;;;;38.17;18.65;;;12.60;97.60;;;;;;4843582;29;20049;-69
2022/03/13 10:56:08;;;;;;;31.50;17.80;;;12.60;94.20;;;;;;4831387;29;20092;-70
2022/03/13 10:58:39;;;;;;;33.22;17.23;;;12.70;93.70;;;;;;4843534;29;20120;-70
2022/03/13 11:01:09;;;;;;;31.35;18.77;;;12.70;93.60;;;;;;4826947;29;20074;-70
2022/03/13 11:03:56;;;;;;;34.47;18.50;;;13.10;93.80;;;;;;4843293;29;20089;-70
2022/03/13 11:06:24;;;;;;;32.15;17.52;;;13.10;93.60;;;;;;4824790;29;20049;-70
2022/03/13 11:08:53;;;;;;;35.95;18.45;;;13.30;93.00;;;;;;4841698;29;20034;-70
2022/03/13 11:11:20;;;;;;;34.60;18.67;;;;;;;;;;4843392;29;20104;-70
2022/03/13 11:13:55;;;;;;;30.73;17.25;;;14.20;96.60;;;;;;4839335;29;20045;-70
2022/03/13 11:16:26;;;;;;;33.40;18.77;;;14.10;96.40;;;;;;4828077;29;20080;-70
2022/03/13 11:18:55;;;;;;;35.42;18.75;;;14.10;96.40;;;;;;4841754;29;20395;-70
2022/03/13 11:21:21;;;;;;;37.60;18.38;;;13.30;96.20;;;;;;4829025;29;20042;-70
2022/03/13 11:23:49;;;;;;;32.95;18.60;;;;;;;;;;4849845;29;20528;-70
2022/03/13 11:26:16;;;;;;;32.42;18.23;;;13.20;93.20;;;;;;4843053;29;20049;-70
2022/03/13 11:28:44;;;;;;;32.28;19.00;;;;;;;;;;4850145;29;20046;-70
2022/03/13 11:31:29;;;;;;;34.15;18.15;;;;;;;;;;4843331;29;20136;-69
2022/03/13 11:34:11;;;;;;;33.63;19.48;;;12.80;96.40;;;;;;4849472;29;20056;-70
2022/03/13 11:36:37;;;;;;;30.77;18.00;;;;;;;;;;4843098;29;20333;-70
2022/03/13 11:39:05;;;;;;;32.15;19.13;;;13.40;93.40;;;;;;4848099;29;20042;-70
2022/03/13 11:41:41;;;;;;;29.63;17.80;;;13.80;96.00;;;;;;4843508;29;20133;-69
2022/03/13 11:44:19;;;;;;;33.97;18.00;;;13.30;96.20;;;;;;4841278;29;20049;-70
2022/03/13 11:46:47;;;;;;;34.22;18.90;;;14.50;96.20;;;;;;4829770;29;20491;-70
2022/03/13 11:49:37;;;;;;;32.40;18.13;;;13.60;95.60;;;;;;4843207;29;20058;-69
2022/03/13 11:52:17;;;;;;;32.88;17.95;;;14.40;91.50;;;;;;4829416;29;20056;-70
2022/03/13 11:54:53;;;;;;;33.70;18.63;;;14.60;91.20;;;;;;4861277;29;20053;-70
2022/03/13 11:57:27;;;;;;;27.80;17.60;;;14.60;91.20;;;;;;4860050;29;20576;-70
2022/03/13 12:00:12;;;;;;;29.38;17.13;;;15.20;95.20;;;;;;4875579;29;20071;-70
2022/03/13 12:02:41;;;;;;;27.08;16.02;;;15.00;95.20;;;;;;4846077;29;20048;-70
2022/03/13 12:05:25;;;;;;;30.25;18.10;;;13.70;95.10;;;;;;4850473;29;20045;-70
2022/03/13 12:08:04;;;;;;;31.70;18.30;;;14.20;91.20;;;;;;4871870;29;20050;-70
2022/03/13 12:10:41;;;;;;;34.15;19.17;;;14.60;95.40;;;;;;4860042;29;20041;-70
2022/03/13 12:13:12;;;;;;;39.65;18.25;;;14.10;92.10;;;;;;4842449;29;20068;-70
2022/03/13 12:15:39;;;;;;;30.00;17.33;;;;;;;;;;4857593;29;20042;-70
2022/03/13 12:18:18;;;;;;;30.23;18.10;;;14.20;95.10;;;;;;4843814;29;20056;-70
2022/03/13 12:20:49;;;;;;;32.10;16.10;;;14.30;90.90;;;;;;4842779;29;20037;-70
2022/03/13 12:23:44;;;;;;;26.40;15.88;;;14.60;92.10;;;;;;4861211;29;20098;-70
2022/03/13 12:26:14;;;;;;;28.05;17.00;;;14.80;90.70;;;;;;4840648;29;20041;-70
2022/03/13 12:28:39;;;;;;;26.23;16.60;;;15.00;94.80;;;;;;4864402;29;20056;-70
2022/03/13 12:31:06;;;;;;;27.20;16.38;;;15.00;91.20;;;;;;4848279;29;20045;-69
2022/03/13 12:33:33;;;;;;;28.63;17.40;;;;;;;;;;4847550;29;20517;-70
2022/03/13 12:36:02;;;;;;;30.77;16.88;;;15.30;90.60;;;;;;4864038;29;20049;-69
2022/03/13 12:38:29;;;;;;;23.80;15.15;;;16.00;91.00;;;;;;4879187;29;20069;-69
2022/03/13 12:40:55;;;;;;;25.35;15.50;;;;;;;;;;4862340;29;20063;-69
2022/03/13 12:43:21;;;;;;;28.92;16.75;;;;;;;;;;4859096;29;20037;-70
2022/03/13 12:45:51;;;;;;;29.85;15.90;;;15.60;90.10;;;;;;4860984;29;20116;-69
2022/03/13 12:48:17;;;;;;;24.55;15.93;;;16.30;93.30;;;;;;4863853;29;20080;-69
2022/03/13 12:50:47;;;;;;;25.58;16.15;;;15.60;93.10;;;;;;4848335;29;20041;-69
2022/03/13 12:53:24;;;;;;;24.95;14.27;;;16.80;93.20;;;;;;4848354;29;20135;-69
2022/03/13 12:55:53;;;;;;;20.77;13.05;;;16.50;89.40;;;;;;4861268;29;20050;-69
2022/03/13 12:58:19;;;;;;;20.50;12.80;;;17.00;90.90;;;;;;4880623;29;20506;-69
2022/03/13 13:00:46;;;;;;;18.15;12.02;;;;;;;;;;4860266;29;20610;-70
2022/03/13 13:03:13;;;;;;;24.65;12.68;;;;;;;;;;4862106;29;20037;-69
2022/03/13 13:05:47;;;;;;;21.35;13.18;;;;;;;;;;4847696;29;20045;-70
2022/03/13 13:08:13;;;;;;;21.05;13.38;;;;;;;;;;4848726;29;20478;-69
2022/03/13 13:10:39;;;;;;;20.73;13.55;;;16.90;92.10;;;;;;4864227;29;20049;-69
2022/03/13 13:13:07;;;;;;;23.95;13.77;;;16.90;88.00;;;;;;4860379;29;20510;-69
2022/03/13 13:15:34;;;;;;;21.73;13.75;;;;;;;;;;4873051;29;20055;-69
2022/03/13 13:18:01;;;;;;;22.63;13.07;;;;;;;;;;4864128;29;20037;-78
2022/03/13 13:20:28;;;;;;;23.88;14.05;;;18.00;91.70;;;;;;4863834;29;20041;-69
2022/03/13 13:23:12;;;;;;;23.08;14.02;;;16.50;91.30;;;;;;4880520;29;20117;-69
2022/03/13 13:25:38;;;;;;;25.33;14.07;;;17.60;91.50;;;;;;4863988;29;20044;-69
2022/03/13 13:28:08;;;;;;;23.75;13.63;;;17.70;86.00;;;;;;4879868;29;20089;-70
2022/03/13 13:30:36;;;;;;;19.75;12.20;;;17.50;85.90;;;;;;4864907;29;20044;-70
2022/03/13 13:33:04;;;;;;;20.85;12.73;;;16.90;90.80;;;;;;4873138;29;20041;-69
2022/03/13 13:35:30;;;;;;;20.17;12.50;;;;;;;;;;4843084;29;20483;-69
2022/03/13 13:37:56;;;;;;;20.40;12.73;;;;;;;;;;4844192;29;20049;-70